createdAt,value
2022-12-27T00:01:38.667Z,6.71
2022-12-27T00:04:06.476Z,6.69
2022-12-27T00:06:34.096Z,6.69
2022-12-27T00:09:02.623Z,6.72
2022-12-27T00:11:30.621Z,6.73
2022-12-27T00:13:59.890Z,6.67
2022-12-27T00:16:27.905Z,6.68
2022-12-27T00:18:57.182Z,6.66
2022-12-27T00:21:25.443Z,6.67
2022-12-27T00:23:55.215Z,6.66
2022-12-27T00:26:24.423Z,6.65
2022-12-27T00:28:52.351Z,6.58
2022-12-27T00:31:21.326Z,6.54
2022-12-27T00:33:51.578Z,6.52
2022-12-27T00:36:22.510Z,6.51
2022-12-27T00:38:50.487Z,6.47
2022-12-27T00:41:18.407Z,6.47
2022-12-27T00:43:46.611Z,6.47
2022-12-27T00:46:14.783Z,6.44
2022-12-27T00:48:43.054Z,6.35
2022-12-27T00:51:15.439Z,6.35
2022-12-27T00:53:44.734Z,6.37
2022-12-27T00:56:15.351Z,6.37
2022-12-27T00:58:42.945Z,6.38
2022-12-27T01:01:12.413Z,6.41
2022-12-27T01:03:40.546Z,6.40
2022-12-27T01:06:10.064Z,6.36
2022-12-27T01:08:37.886Z,6.36
2022-12-27T01:11:07.554Z,6.34
2022-12-27T01:13:35.549Z,6.32
2022-12-27T01:16:03.575Z,6.20
2022-12-27T01:18:31.194Z,6.25
2022-12-27T01:20:58.780Z,6.30
2022-12-27T01:23:27.704Z,6.19
2022-12-27T01:26:00.830Z,6.25
2022-12-27T01:28:29.935Z,6.26
2022-12-27T01:30:57.667Z,6.15
2022-12-27T01:33:25.572Z,6.15
2022-12-27T01:35:53.272Z,6.07
2022-12-27T01:38:20.883Z,6.02
2022-12-27T01:40:48.466Z,5.98
2022-12-27T01:43:17.181Z,6.02
2022-12-27T01:45:47.588Z,6.01
2022-12-27T01:48:17.627Z,5.88
2022-12-27T01:50:47.416Z,5.86
2022-12-27T01:53:17.808Z,5.83
2022-12-27T01:55:48.932Z,5.82
2022-12-27T01:58:20.242Z,5.75
2022-12-27T02:00:50.338Z,5.73
2022-12-27T02:03:21.722Z,5.68
2022-12-27T02:05:50.750Z,5.73
2022-12-27T02:08:31.744Z,5.75
2022-12-27T02:10:59.881Z,5.63
2022-12-27T02:13:28.382Z,5.65
2022-12-27T02:15:57.334Z,5.63
2022-12-27T02:18:24.954Z,5.62
2022-12-27T02:21:09.072Z,5.56
2022-12-27T02:24:03.713Z,5.53
2022-12-27T02:26:47.068Z,5.55
2022-12-27T02:29:23.925Z,5.43
2022-12-27T02:31:57.530Z,5.44
2022-12-27T02:34:27.786Z,5.43
2022-12-27T02:37:01.982Z,5.33
2022-12-27T02:39:30.595Z,5.39
2022-12-27T02:42:21.576Z,5.35
2022-12-27T02:45:10.464Z,5.38
2022-12-27T02:47:56.219Z,5.29
2022-12-27T02:50:41.731Z,5.29
2022-12-27T02:53:13.830Z,5.35
2022-12-27T02:56:09.540Z,5.24
2022-12-27T02:58:44.797Z,5.31
2022-12-27T03:01:36.940Z,5.31
2022-12-27T03:04:14.621Z,5.27
2022-12-27T03:06:54.144Z,5.25
2022-12-27T03:10:07.412Z,5.26
2022-12-27T03:13:04.061Z,5.23
2022-12-27T03:15:55.043Z,5.20
2022-12-27T03:18:29.222Z,5.15
2022-12-27T03:21:15.699Z,5.11
2022-12-27T03:24:02.606Z,5.13
2022-12-27T03:26:32.023Z,5.02
2022-12-27T03:29:18.086Z,4.96
2022-12-27T03:32:11.767Z,4.80
2022-12-27T03:34:44.520Z,4.78
2022-12-27T03:37:32.693Z,4.86
2022-12-27T03:40:06.479Z,4.80
2022-12-27T03:42:56.314Z,4.71
2022-12-27T03:45:44.547Z,4.65
2022-12-27T03:48:14.240Z,4.57
2022-12-27T03:50:46.363Z,4.50
2022-12-27T03:53:15.473Z,4.50
2022-12-27T03:55:43.377Z,4.50
2022-12-27T03:58:11.001Z,4.50
2022-12-27T04:00:38.590Z,4.48
2022-12-27T04:03:06.240Z,4.49
2022-12-27T04:05:33.853Z,4.40
2022-12-27T04:08:20.511Z,4.38
2022-12-27T04:11:05.977Z,4.39
2022-12-27T04:13:51.302Z,4.28
2022-12-27T04:16:36.679Z,4.16
2022-12-27T04:19:22.047Z,4.24
2022-12-27T04:22:07.465Z,4.22
2022-12-27T04:24:54.126Z,4.15
2022-12-27T04:27:39.336Z,4.16
2022-12-27T04:30:25.720Z,4.21
2022-12-27T04:33:10.989Z,4.24
2022-12-27T04:35:38.590Z,4.26
2022-12-27T04:38:06.197Z,4.24
2022-12-27T04:40:52.739Z,4.19
2022-12-27T04:43:38.156Z,4.18
2022-12-27T04:46:23.427Z,4.23
2022-12-27T04:49:08.868Z,4.24
2022-12-27T04:51:54.029Z,4.27
2022-12-27T04:54:40.383Z,4.29
2022-12-27T04:57:09.341Z,4.28
2022-12-27T04:59:54.618Z,4.27
2022-12-27T05:02:22.465Z,4.26
2022-12-27T05:04:50.334Z,4.29
2022-12-27T05:07:35.496Z,4.28
2022-12-27T05:10:22.852Z,4.14
2022-12-27T05:13:09.589Z,4.15
2022-12-27T05:15:37.282Z,4.10
2022-12-27T05:18:04.971Z,4.15
2022-12-27T05:20:34.830Z,4.04
2022-12-27T05:23:16.401Z,4.05
2022-12-27T05:25:44.592Z,4.03
2022-12-27T05:28:14.470Z,4.07
2022-12-27T05:30:43.902Z,4.06
2022-12-27T05:33:11.707Z,4.08
2022-12-27T05:35:39.439Z,4.06
2022-12-27T05:38:07.585Z,3.97
2022-12-27T05:40:35.356Z,4.00
2022-12-27T05:43:04.281Z,3.96
2022-12-27T05:45:33.950Z,3.95
2022-12-27T05:48:01.589Z,3.97
2022-12-27T05:50:29.195Z,3.99
2022-12-27T05:52:56.980Z,4.01
2022-12-27T05:55:24.680Z,3.99
2022-12-27T05:57:52.305Z,3.87
2022-12-27T06:00:20.128Z,3.93
2022-12-27T06:02:49.167Z,3.92
2022-12-27T06:05:16.845Z,3.86
2022-12-27T06:07:44.511Z,3.86
2022-12-27T06:10:12.472Z,3.87
2022-12-27T06:12:40.059Z,3.90
2022-12-27T06:15:08.443Z,3.91
2022-12-27T06:17:36.009Z,3.92
2022-12-27T06:20:05.692Z,3.92
2022-12-27T06:22:33.287Z,3.92
2022-12-27T06:25:00.829Z,3.89
2022-12-27T06:27:28.439Z,3.91
2022-12-27T06:29:56.050Z,3.88
2022-12-27T06:32:23.663Z,3.85
2022-12-27T06:34:51.237Z,3.74
2022-12-27T06:37:20.230Z,3.68
2022-12-27T06:39:47.829Z,3.59
2022-12-27T06:42:15.390Z,3.52
2022-12-27T06:44:43.035Z,3.43
2022-12-27T06:47:10.627Z,3.33
2022-12-27T06:49:38.206Z,3.28
2022-12-27T06:52:06.210Z,3.24
2022-12-27T06:54:35.243Z,3.12
2022-12-27T06:57:02.871Z,3.01
2022-12-27T06:59:30.447Z,2.91
2022-12-27T07:01:58.190Z,2.89
2022-12-27T07:04:25.900Z,2.88
2022-12-27T07:06:53.476Z,2.88
2022-12-27T07:09:21.047Z,2.78
2022-12-27T07:11:50.011Z,2.74
2022-12-27T07:14:17.599Z,2.70
2022-12-27T07:16:45.248Z,2.72
2022-12-27T07:19:12.842Z,2.67
2022-12-27T07:21:40.385Z,2.66
2022-12-27T07:24:08.620Z,2.53
2022-12-27T07:26:36.229Z,2.47
2022-12-27T07:29:05.567Z,2.41
2022-12-27T07:31:34.016Z,2.37
2022-12-27T07:34:03.190Z,2.37
2022-12-27T07:36:33.843Z,2.26
2022-12-27T07:39:01.505Z,2.31
2022-12-27T07:41:29.087Z,2.33
2022-12-27T07:43:56.813Z,2.36
2022-12-27T07:46:27.389Z,2.40
2022-12-27T07:48:56.162Z,2.35
2022-12-27T07:51:25.074Z,2.36
2022-12-27T07:53:53.066Z,2.22
2022-12-27T07:56:26.168Z,2.08
2022-12-27T07:58:55.527Z,2.08
2022-12-27T08:01:25.621Z,2.10
2022-12-27T08:03:53.429Z,2.07
2022-12-27T08:06:23.954Z,2.06
2022-12-27T08:08:52.688Z,2.18
2022-12-27T08:11:20.427Z,2.26
2022-12-27T08:13:48.049Z,2.25
2022-12-27T08:16:18.024Z,2.20
2022-12-27T08:18:47.092Z,2.28
2022-12-27T08:21:15.888Z,2.30
2022-12-27T08:23:43.648Z,2.21
2022-12-27T08:26:11.433Z,2.21
2022-12-27T08:28:39.445Z,2.22
2022-12-27T08:31:08.087Z,2.31
2022-12-27T08:33:36.369Z,2.36
2022-12-27T08:36:22.354Z,2.44
2022-12-27T08:38:55.247Z,2.53
2022-12-27T08:41:22.997Z,2.60
2022-12-27T08:43:50.681Z,2.73
2022-12-27T08:46:19.518Z,2.83
2022-12-27T08:48:48.708Z,2.94
2022-12-27T08:51:26.585Z,3.06
2022-12-27T08:54:00.685Z,3.14
2022-12-27T08:56:28.321Z,3.24
2022-12-27T08:58:55.940Z,3.36
2022-12-27T09:01:25.448Z,3.46
2022-12-27T09:03:53.198Z,3.58
2022-12-27T09:06:24.301Z,3.62
2022-12-27T09:08:52.550Z,3.70
2022-12-27T09:11:21.752Z,3.79
2022-12-27T09:13:49.446Z,3.85
2022-12-27T09:16:19.730Z,3.90
2022-12-27T09:18:49.695Z,3.98
2022-12-27T09:21:17.800Z,4.06
2022-12-27T09:23:47.821Z,4.12
2022-12-27T09:26:17.936Z,4.25
2022-12-27T09:28:46.517Z,4.36
2022-12-27T09:31:15.721Z,4.48
2022-12-27T09:33:43.736Z,4.44
2022-12-27T09:36:12.817Z,4.58
2022-12-27T09:38:40.892Z,4.61
2022-12-27T09:41:40.826Z,4.52
2022-12-27T09:44:06.367Z,4.46
2022-12-27T09:46:37.507Z,4.42
2022-12-27T09:49:05.155Z,4.37
2022-12-27T09:51:36.006Z,4.18
2022-12-27T09:54:08.418Z,4.22
2022-12-27T09:57:09.542Z,4.18
2022-12-27T09:59:27.058Z,4.12
2022-12-27T10:01:54.870Z,4.08
2022-12-27T10:04:22.784Z,4.13
2022-12-27T10:07:06.162Z,4.16
2022-12-27T10:09:56.263Z,4.19
2022-12-27T10:12:36.209Z,4.25
2022-12-27T10:15:17.948Z,4.28
2022-12-27T10:17:53.503Z,4.37
2022-12-27T10:20:31.286Z,4.44
2022-12-27T10:23:06.236Z,4.53
2022-12-27T10:25:35.119Z,4.66
2022-12-27T10:28:13.817Z,4.75
2022-12-27T10:30:41.643Z,4.91
2022-12-27T10:33:15.009Z,4.99
2022-12-27T10:35:42.618Z,5.11
2022-12-27T10:38:11.550Z,5.24
2022-12-27T10:40:41.219Z,5.41
2022-12-27T10:43:19.244Z,5.57
2022-12-27T10:45:46.987Z,5.66
2022-12-27T10:48:17.468Z,5.62
2022-12-27T10:50:51.707Z,5.69
2022-12-27T10:53:34.991Z,5.72
2022-12-27T10:56:08.344Z,5.79
2022-12-27T10:58:40.974Z,5.82
2022-12-27T11:01:16.868Z,5.86
2022-12-27T11:03:44.657Z,5.92
2022-12-27T11:06:23.710Z,5.98
2022-12-27T11:08:52.777Z,5.97
2022-12-27T11:11:22.492Z,5.94
2022-12-27T11:13:52.537Z,6.07
2022-12-27T11:16:29.193Z,6.15
2022-12-27T11:18:58.854Z,6.20
2022-12-27T11:21:28.138Z,6.33
2022-12-27T11:23:58.935Z,6.40
2022-12-27T11:26:29.425Z,6.45
2022-12-27T11:29:00.125Z,6.42
2022-12-27T11:31:32.060Z,6.39
2022-12-27T11:34:01.824Z,6.40
2022-12-27T11:36:32.215Z,6.48
2022-12-27T11:39:00.617Z,6.60
2022-12-27T11:41:35.899Z,6.71
2022-12-27T11:44:09.516Z,6.73
2022-12-27T11:46:42.045Z,6.77
2022-12-27T11:49:18.190Z,6.73
2022-12-27T11:52:32.313Z,6.77
2022-12-27T11:55:19.659Z,6.83
2022-12-27T11:58:17.070Z,6.90
2022-12-27T12:00:53.437Z,6.99
2022-12-27T12:03:49.457Z,6.92
2022-12-27T12:06:19.109Z,6.93
2022-12-27T12:09:00.603Z,6.91
2022-12-27T12:11:37.675Z,6.81
2022-12-27T12:14:54.710Z,6.88
2022-12-27T12:17:42.559Z,6.96
2022-12-27T12:20:24.200Z,7.06
2022-12-27T12:23:04.671Z,7.07
2022-12-27T12:25:52.069Z,7.13
2022-12-27T12:28:58.221Z,7.23
2022-12-27T12:31:36.855Z,7.26
2022-12-27T12:34:18.273Z,7.09
2022-12-27T12:36:56.488Z,7.17
2022-12-27T12:39:30.589Z,7.31
2022-12-27T12:42:15.029Z,6.93
2022-12-27T12:45:00.197Z,7.02
2022-12-27T12:47:41.080Z,7.26
2022-12-27T12:50:22.808Z,7.35
2022-12-27T12:53:14.550Z,7.45
2022-12-27T12:55:53.359Z,7.27
2022-12-27T12:58:34.013Z,7.38
2022-12-27T13:01:16.496Z,7.47
2022-12-27T13:04:02.987Z,7.62
2022-12-27T13:06:58.108Z,7.67
2022-12-27T13:09:35.218Z,7.74
2022-12-27T13:12:06.068Z,7.83
2022-12-27T13:14:48.028Z,7.87
2022-12-27T13:17:19.727Z,7.98
2022-12-27T13:20:02.585Z,8.02
2022-12-27T13:22:41.235Z,8.02
2022-12-27T13:25:22.675Z,8.00
2022-12-27T13:27:54.821Z,7.93
2022-12-27T13:30:22.888Z,8.01
2022-12-27T13:33:17.367Z,8.08
2022-12-27T13:35:59.642Z,7.91
2022-12-27T13:38:44.519Z,7.90
2022-12-27T13:41:38.705Z,7.85
2022-12-27T13:44:36.322Z,7.81
2022-12-27T13:47:23.018Z,7.85
2022-12-27T13:50:04.659Z,7.82
2022-12-27T13:52:53.270Z,7.85
2022-12-27T13:55:38.248Z,7.73
2022-12-27T13:58:19.467Z,7.71
2022-12-27T14:00:52.165Z,7.56
2022-12-27T14:03:48.108Z,7.37
2022-12-27T14:06:35.937Z,7.22
2022-12-27T14:09:37.773Z,7.27
2022-12-27T14:12:39.835Z,7.09
2022-12-27T14:15:09.719Z,6.88
2022-12-27T14:17:42.081Z,6.86
2022-12-27T14:20:26.549Z,6.79
2022-12-27T14:23:05.814Z,6.80
2022-12-27T14:26:10.725Z,6.77
2022-12-27T14:29:15.910Z,6.76
2022-12-27T14:31:57.829Z,6.74
2022-12-27T14:34:59.508Z,6.81
2022-12-27T14:38:12.861Z,6.85
2022-12-27T14:40:45.838Z,6.90
2022-12-27T14:44:00.857Z,6.85
2022-12-27T14:47:00.780Z,6.84
2022-12-27T14:50:14.322Z,6.76
2022-12-27T14:53:08.449Z,6.72
2022-12-27T14:55:50.219Z,6.62
2022-12-27T14:58:30.799Z,6.61
2022-12-27T15:01:11.985Z,6.64
2022-12-27T15:03:53.125Z,6.65
2022-12-27T15:06:28.704Z,6.64
2022-12-27T15:09:07.150Z,6.56
2022-12-27T15:11:46.257Z,6.50
2022-12-27T15:14:26.950Z,6.45
2022-12-27T15:17:01.155Z,6.39
2022-12-27T15:19:45.573Z,6.36
2022-12-27T15:22:21.102Z,6.33
2022-12-27T15:24:54.096Z,6.30
2022-12-27T15:27:27.757Z,6.22
2022-12-27T15:30:07.279Z,6.08
2022-12-27T15:32:46.972Z,6.01
2022-12-27T15:35:34.220Z,5.92
2022-12-27T15:38:12.002Z,5.73
2022-12-27T15:41:16.494Z,5.61
2022-12-27T15:44:06.571Z,5.52
2022-12-27T15:47:02.371Z,5.50
2022-12-27T15:49:51.571Z,5.41
2022-12-27T15:52:25.459Z,5.36
2022-12-27T15:55:07.031Z,5.27
2022-12-27T15:58:00.328Z,5.18
2022-12-27T16:00:33.548Z,5.05
2022-12-27T16:03:03.240Z,4.91
2022-12-27T16:06:28.685Z,4.90
2022-12-27T16:09:24.413Z,4.88
2022-12-27T16:12:02.081Z,4.81
2022-12-27T16:14:31.440Z,4.77
2022-12-27T16:17:11.869Z,4.72
2022-12-27T16:20:16.244Z,4.71
2022-12-27T16:22:45.188Z,4.62
2022-12-27T16:25:31.380Z,4.51
2022-12-27T16:28:02.215Z,4.23
2022-12-27T16:31:33.033Z,4.08
2022-12-27T16:38:03.593Z,3.96
2022-12-27T16:40:46.103Z,3.96
2022-12-27T16:43:49.632Z,3.89
2022-12-27T16:46:21.773Z,3.85
2022-12-27T16:49:00.476Z,3.84
2022-12-27T16:51:33.811Z,3.67
2022-12-27T16:54:07.209Z,3.61
2022-12-27T16:56:37.467Z,3.64
2022-12-27T16:59:43.567Z,3.73
2022-12-27T17:02:33.304Z,3.76
2022-12-27T17:05:01.514Z,3.66
2022-12-27T17:07:45.091Z,3.68
2022-12-27T17:10:32.968Z,3.74
2022-12-27T17:13:06.602Z,3.77
2022-12-27T17:15:34.298Z,3.76
2022-12-27T17:18:25.604Z,3.67
2022-12-27T17:21:03.814Z,3.65
2022-12-27T17:23:31.930Z,3.58
2022-12-27T17:26:11.828Z,3.51
2022-12-27T17:28:46.524Z,3.50
2022-12-27T17:31:20.677Z,3.52
2022-12-27T17:33:59.346Z,3.51
2022-12-27T17:36:36.264Z,3.45
2022-12-27T17:39:11.899Z,3.43
2022-12-27T17:42:04.907Z,3.40
2022-12-27T17:44:42.085Z,3.36
2022-12-27T17:47:18.679Z,3.35
2022-12-27T17:49:46.353Z,3.35
2022-12-27T17:52:34.945Z,3.36
2022-12-27T17:55:34.509Z,3.29
2022-12-27T17:58:05.887Z,3.26
2022-12-27T18:00:37.489Z,3.23
2022-12-27T18:03:09.057Z,3.24
2022-12-27T18:05:40.868Z,3.27
2022-12-27T18:08:19.814Z,3.28
2022-12-27T18:10:47.435Z,3.27
2022-12-27T18:13:18.812Z,3.24
2022-12-27T18:15:50.071Z,3.22
2022-12-27T18:18:20.150Z,3.21
2022-12-27T18:20:47.743Z,3.20
2022-12-27T18:23:18.284Z,3.19
2022-12-27T18:25:57.415Z,3.15
2022-12-27T18:28:32.511Z,3.12
2022-12-27T18:31:04.821Z,3.07
2022-12-27T18:33:35.417Z,3.04
2022-12-27T18:36:05.872Z,3.04
2022-12-27T18:38:36.373Z,3.02
2022-12-27T18:41:07.577Z,3.02
2022-12-27T18:43:35.879Z,3.01
2022-12-27T18:46:06.144Z,3.00
2022-12-27T18:48:35.973Z,2.93
2022-12-27T18:51:04.328Z,2.94
2022-12-27T18:53:33.080Z,2.92
2022-12-27T18:56:02.243Z,2.91
2022-12-27T18:58:29.923Z,2.88
2022-12-27T19:01:01.433Z,2.79
2022-12-27T19:03:35.218Z,2.78
2022-12-27T19:06:08.166Z,2.79
2022-12-27T19:08:39.944Z,2.68
2022-12-27T19:11:08.156Z,2.57
2022-12-27T19:13:43.566Z,2.57
2022-12-27T19:16:21.910Z,2.56
2022-12-27T19:18:53.748Z,2.45
2022-12-27T19:21:29.827Z,2.44
2022-12-27T19:23:57.472Z,2.45
2022-12-27T19:26:31.974Z,2.46
2022-12-27T19:29:03.186Z,2.46
2022-12-27T19:31:31.340Z,2.46
2022-12-27T19:34:02.711Z,2.44
2022-12-27T19:36:33.117Z,2.40
2022-12-27T19:39:01.470Z,2.40
2022-12-27T19:41:29.215Z,2.34
2022-12-27T19:43:57.050Z,2.31
2022-12-27T19:46:30.782Z,2.30
2022-12-27T19:49:40.407Z,2.29
2022-12-27T19:51:48.092Z,2.28
2022-12-27T19:54:17.162Z,2.26
2022-12-27T19:56:44.763Z,2.27
2022-12-27T19:59:15.989Z,2.27
2022-12-27T20:01:45.429Z,2.20
2022-12-27T20:04:14.626Z,2.17
2022-12-27T20:06:42.395Z,2.16
2022-12-27T20:09:14.485Z,2.12
2022-12-27T20:11:43.300Z,2.07
2022-12-27T20:14:11.328Z,2.04
2022-12-27T20:16:38.924Z,2.06
2022-12-27T20:19:06.542Z,2.01
2022-12-27T20:21:35.549Z,1.99
2022-12-27T20:24:03.287Z,1.95
2022-12-27T20:26:30.887Z,1.84
2022-12-27T20:28:59.672Z,1.73
2022-12-27T20:31:27.328Z,1.69
2022-12-27T20:33:56.401Z,1.63
2022-12-27T20:36:24.215Z,1.57
2022-12-27T20:38:53.181Z,1.57
2022-12-27T20:41:22.874Z,1.57
2022-12-27T20:43:55.070Z,1.56
2022-12-27T20:46:22.797Z,1.57
2022-12-27T20:48:50.769Z,1.57
2022-12-27T20:51:19.509Z,1.57
2022-12-27T20:53:49.042Z,1.57
2022-12-27T20:56:18.348Z,1.50
2022-12-27T20:58:45.923Z,1.42
2022-12-27T21:01:15.856Z,1.34
2022-12-27T21:03:44.537Z,1.30
2022-12-27T21:06:13.780Z,1.27
2022-12-27T21:08:47.782Z,1.24
2022-12-27T21:11:19.803Z,1.22
2022-12-27T21:13:48.825Z,1.17
2022-12-27T21:16:18.311Z,1.15
2022-12-27T21:18:46.096Z,1.17
2022-12-27T21:21:19.456Z,1.15
2022-12-27T21:23:47.763Z,1.05
2022-12-27T21:26:16.778Z,1.04
2022-12-27T21:28:45.831Z,1.07
2022-12-27T21:31:14.167Z,1.11
2022-12-27T21:33:41.965Z,1.13
2022-12-27T21:36:12.463Z,1.15
2022-12-27T21:38:40.104Z,1.14
2022-12-27T21:41:10.904Z,1.10
2022-12-27T21:43:38.548Z,1.06
2022-12-27T21:46:10.488Z,1.04
2022-12-27T21:48:38.671Z,1.03
2022-12-27T21:51:06.911Z,1.03
2022-12-27T21:53:34.700Z,0.95
2022-12-27T21:56:02.406Z,0.85
2022-12-27T21:58:30.980Z,0.80
2022-12-27T22:01:08.079Z,0.73
2022-12-27T22:03:39.220Z,0.67
2022-12-27T22:06:11.415Z,0.70
2022-12-27T22:08:38.906Z,0.71
2022-12-27T22:11:06.594Z,0.68
2022-12-27T22:13:34.275Z,0.68
2022-12-27T22:16:03.823Z,0.69
2022-12-27T22:18:32.321Z,0.69
2022-12-27T22:21:02.480Z,0.63
2022-12-27T22:23:31.504Z,0.58
2022-12-27T22:25:59.114Z,0.60
2022-12-27T22:28:26.968Z,0.58
2022-12-27T22:30:54.768Z,0.59
2022-12-27T22:33:22.428Z,0.60
2022-12-27T22:35:50.066Z,0.58
2022-12-27T22:38:19.063Z,0.52
2022-12-27T22:40:47.072Z,0.50
2022-12-27T22:43:14.941Z,0.50
2022-12-27T22:45:43.922Z,0.49
2022-12-27T22:48:13.071Z,0.50
2022-12-27T22:50:40.648Z,0.52
2022-12-27T22:53:08.203Z,0.54
2022-12-27T22:55:41.134Z,0.54
2022-12-27T22:58:08.787Z,0.54
2022-12-27T23:00:36.321Z,0.51
2022-12-27T23:03:03.898Z,0.45
2022-12-27T23:05:31.480Z,0.36
2022-12-27T23:08:05.117Z,0.26
2022-12-27T23:10:34.881Z,0.23
2022-12-27T23:13:03.831Z,0.18
2022-12-27T23:15:31.437Z,0.17
2022-12-27T23:17:59.046Z,0.21
2022-12-27T23:20:26.666Z,0.24
2022-12-27T23:22:54.257Z,0.27
2022-12-27T23:25:21.829Z,0.29
2022-12-27T23:27:49.395Z,0.29
2022-12-27T23:30:19.455Z,0.31
2022-12-27T23:32:47.082Z,0.29
2022-12-27T23:35:14.797Z,0.24
2022-12-27T23:37:42.384Z,0.24
2022-12-27T23:40:11.380Z,0.26
2022-12-27T23:42:39.014Z,0.26
2022-12-27T23:45:07.532Z,0.24
2022-12-27T23:47:36.467Z,0.16
2022-12-27T23:50:04.290Z,0.03
2022-12-27T23:52:31.937Z,0.05
2022-12-27T23:54:59.567Z,0.02
2022-12-27T23:57:27.219Z,-0.04
2022-12-27T23:59:55.403Z,-0.06
